createdAt,value
2019-02-12T14:17:47.897Z,8.88
2019-02-12T14:18:47.841Z,8.90
2019-02-12T14:26:42.602Z,8.81
2019-02-12T14:27:42.584Z,8.79
2019-02-12T14:28:42.551Z,8.88
2019-02-12T14:29:42.541Z,8.90
2019-02-12T14:30:42.528Z,8.93
2019-02-12T14:31:42.520Z,8.91
2019-02-12T14:32:42.529Z,8.96
2019-02-12T14:33:42.499Z,8.96
2019-02-12T14:34:42.487Z,9.02
2019-02-12T14:35:42.474Z,8.97
2019-02-12T14:36:42.463Z,9.02
2019-02-12T14:37:42.476Z,9.01
2019-02-12T14:38:42.492Z,8.94
2019-02-12T14:39:42.433Z,8.93
2019-02-12T14:40:42.419Z,8.96
2019-02-12T14:41:42.407Z,9.04
2019-02-12T14:42:42.422Z,8.91
2019-02-12T14:43:42.405Z,8.93
2019-02-12T14:47:10.828Z,8.90
2019-02-12T14:48:10.794Z,8.81
2019-02-12T14:49:10.787Z,8.84
2019-02-12T14:50:10.775Z,8.79
2019-02-12T14:51:10.759Z,8.86
2019-02-12T14:52:10.768Z,8.69
2019-02-12T14:53:10.742Z,8.72
2019-02-12T14:54:10.723Z,8.68
2019-02-12T14:55:10.745Z,8.65
2019-02-12T14:56:11.536Z,8.68
2019-02-12T14:57:10.731Z,8.62
2019-02-12T14:58:10.684Z,8.62
2019-02-12T14:59:10.671Z,8.63
2019-02-12T15:00:10.657Z,8.58
2019-02-12T15:01:10.650Z,8.60
2019-02-12T15:02:10.637Z,8.60
2019-02-12T15:03:10.643Z,8.65
2019-02-12T15:04:10.621Z,8.63
2019-02-12T15:05:10.633Z,8.54
2019-02-12T15:06:10.598Z,8.58
2019-02-12T15:07:10.583Z,8.53
2019-02-12T15:08:10.594Z,8.45
2019-02-12T15:09:10.559Z,8.47
2019-02-12T15:10:10.551Z,8.45
2019-02-12T15:11:10.539Z,8.37
2019-02-12T15:12:10.526Z,8.32
2019-02-12T15:13:10.539Z,8.32
2019-02-12T15:14:10.513Z,8.33
2019-02-12T15:15:10.594Z,8.30
2019-02-12T15:16:10.483Z,8.28
2019-02-12T15:17:10.478Z,8.28
2019-02-12T15:18:10.490Z,8.21
2019-02-12T15:19:10.451Z,8.32
2019-02-12T15:20:10.443Z,8.21
2019-02-12T15:21:10.432Z,8.18
2019-02-12T15:22:10.418Z,8.25
2019-02-12T15:23:10.407Z,8.12
2019-02-12T15:24:10.464Z,8.07
2019-02-12T15:25:10.386Z,8.20
2019-02-12T15:26:10.389Z,8.20
2019-02-12T15:27:10.362Z,8.21
2019-02-12T15:29:40.797Z,8.17
2019-02-12T15:30:40.781Z,8.26
2019-02-12T15:31:40.747Z,8.18
2019-02-12T15:32:40.735Z,8.20
2019-02-12T15:33:40.726Z,8.15
2019-02-12T15:34:40.749Z,8.17
2019-02-12T15:35:40.712Z,8.14
2019-02-12T15:36:40.696Z,8.15
2019-02-12T15:37:40.681Z,8.08
2019-02-12T15:38:40.669Z,8.03
2019-02-12T15:39:40.706Z,8.10
2019-02-12T15:40:40.652Z,8.12
2019-02-12T15:41:40.638Z,8.08
2019-02-12T15:42:40.649Z,8.04
2019-02-12T15:43:40.621Z,8.10
2019-02-12T15:44:40.633Z,8.12
2019-02-12T15:45:40.619Z,8.14
2019-02-12T15:46:40.618Z,8.07
2019-02-12T15:47:40.574Z,8.17
2019-02-12T15:48:40.572Z,8.12
2019-02-12T15:49:40.599Z,8.12
2019-02-12T15:50:40.552Z,8.11
2019-02-12T15:51:40.532Z,8.08
2019-02-12T15:52:40.522Z,8.03
2019-02-12T15:53:40.508Z,8.03
2019-02-12T15:54:40.499Z,7.97
2019-02-12T15:55:42.272Z,8.03
2019-02-12T15:56:41.475Z,7.99
2019-02-12T15:57:43.112Z,8.03
2019-02-12T15:58:41.448Z,8.08
2019-02-12T15:59:40.438Z,8.07
2019-02-12T16:00:41.525Z,7.97
2019-02-12T16:01:40.427Z,7.96
2019-02-12T16:02:40.410Z,7.96
2019-02-12T16:03:40.396Z,7.97
2019-02-12T16:04:40.385Z,7.99
2019-02-12T16:05:41.341Z,7.99
2019-02-12T16:06:42.394Z,7.94
2019-02-12T16:07:40.351Z,7.93
2019-02-12T16:08:40.343Z,7.85
2019-02-12T16:09:41.664Z,7.81
2019-02-12T16:10:41.943Z,7.78
2019-02-12T16:11:41.946Z,7.72
2019-02-12T16:12:40.304Z,7.75
2019-02-12T16:13:40.290Z,7.78
2019-02-12T16:14:42.103Z,7.79
2019-02-12T16:15:40.266Z,7.79
2019-02-12T16:16:40.303Z,7.71
2019-02-12T16:17:40.241Z,7.77
2019-02-12T16:18:40.231Z,7.74
2019-02-12T16:19:40.220Z,7.72
2019-02-12T16:20:40.216Z,7.77
2019-02-12T16:21:40.211Z,7.66
2019-02-12T16:22:40.216Z,7.62
2019-02-12T16:23:40.178Z,7.69
2019-02-12T16:24:40.363Z,7.60
2019-02-12T16:25:40.167Z,7.60
2019-02-12T16:26:40.144Z,7.63
2019-02-12T16:27:40.151Z,7.55
2019-02-12T16:28:40.118Z,7.52
2019-02-12T16:29:40.585Z,7.50
2019-02-12T16:30:40.096Z,7.50
2019-02-12T16:31:40.088Z,7.53
2019-02-12T16:32:40.113Z,7.44
2019-02-12T16:33:40.072Z,7.40
2019-02-12T16:35:15.815Z,7.44
2019-02-12T16:35:40.096Z,7.37
2019-02-12T16:36:40.032Z,7.37
2019-02-12T16:37:40.039Z,7.37
2019-02-12T16:38:40.009Z,7.29
2019-02-12T16:39:40.984Z,7.41
2019-02-12T16:40:39.986Z,7.29
2019-02-12T16:41:39.993Z,7.31
2019-02-12T16:42:40.011Z,7.20
2019-02-12T16:43:40.018Z,7.24
2019-02-12T16:44:39.942Z,7.22
2019-02-12T16:45:39.940Z,7.22
2019-02-12T16:46:39.924Z,7.16
2019-02-12T16:47:40.071Z,7.13
2019-02-12T16:48:39.978Z,7.05
2019-02-12T16:49:39.923Z,7.12
2019-02-12T16:50:39.873Z,7.05
2019-02-12T16:51:39.887Z,7.01
2019-02-12T16:52:39.925Z,7.01
2019-02-12T16:53:39.976Z,7.01
2019-02-12T16:54:39.844Z,7.02
2019-02-12T16:55:39.880Z,6.97
2019-02-12T16:56:39.889Z,6.99
2019-02-12T16:57:39.910Z,7.01
2019-02-12T16:58:39.806Z,6.91
2019-02-12T16:59:39.906Z,6.81
2019-02-12T17:00:39.765Z,6.87
2019-02-12T17:01:39.752Z,6.90
2019-02-12T17:02:39.763Z,6.87
2019-02-12T17:03:39.730Z,6.79
2019-02-12T17:04:39.720Z,6.86
2019-02-12T17:05:39.717Z,6.86
2019-02-12T17:06:39.695Z,6.77
2019-02-12T17:07:39.734Z,6.71
2019-02-12T17:08:39.678Z,6.81
2019-02-12T17:09:39.663Z,6.81
2019-02-12T17:10:39.656Z,6.71
2019-02-12T17:11:39.655Z,6.65
2019-02-12T17:12:39.628Z,6.72
2019-02-12T17:13:39.641Z,6.66
2019-02-12T17:14:39.609Z,6.66
2019-02-12T17:15:39.594Z,6.59
2019-02-12T17:16:39.590Z,6.62
2019-02-12T17:17:39.628Z,6.63
2019-02-12T17:18:39.641Z,6.54
2019-02-12T17:19:39.551Z,6.61
2019-02-12T17:20:39.544Z,6.51
2019-02-12T17:21:39.540Z,6.50
2019-02-12T17:22:39.521Z,6.50
2019-02-12T17:23:39.533Z,6.48
2019-02-12T17:24:39.502Z,6.50
2019-02-12T17:25:39.486Z,6.43
2019-02-12T17:26:39.475Z,6.51
2019-02-12T17:27:39.470Z,6.46
2019-02-12T17:28:39.484Z,6.46
2019-02-12T17:29:39.475Z,6.36
2019-02-12T17:30:39.526Z,6.40
2019-02-12T17:31:39.766Z,6.33
2019-02-12T17:32:39.408Z,6.38
2019-02-12T17:33:39.430Z,6.30
2019-02-12T17:34:39.453Z,6.29
2019-02-12T17:35:39.386Z,6.35
2019-02-12T17:36:39.506Z,6.38
2019-02-12T17:37:39.567Z,6.35
2019-02-12T17:38:39.432Z,6.33
2019-02-12T17:39:39.415Z,6.32
2019-02-12T17:40:39.388Z,6.26
2019-02-12T17:41:39.326Z,6.35
2019-02-12T17:42:39.421Z,6.38
2019-02-12T17:43:39.416Z,6.38
2019-02-12T17:44:39.289Z,6.38
2019-02-12T17:45:39.298Z,6.30
2019-02-12T17:46:39.286Z,6.33
2019-02-12T17:47:39.242Z,6.22
2019-02-12T17:48:39.321Z,6.43
2019-02-12T17:49:39.219Z,6.32
2019-02-12T17:50:39.210Z,6.33
2019-02-12T17:51:39.196Z,6.35
2019-02-12T17:52:39.197Z,6.38
2019-02-12T17:53:39.295Z,6.30
2019-02-12T17:54:39.207Z,6.26
2019-02-12T17:55:39.179Z,6.28
2019-02-12T17:56:39.194Z,6.30
2019-02-12T17:57:39.171Z,6.26
2019-02-12T17:58:39.241Z,6.30
2019-02-12T17:59:39.111Z,6.21
2019-02-12T18:00:39.228Z,6.22
2019-02-12T18:01:39.359Z,6.28
2019-02-12T18:02:39.233Z,6.28
2019-02-12T18:03:39.092Z,6.25
2019-02-12T18:04:39.057Z,6.28
2019-02-12T18:05:39.044Z,6.30
2019-02-12T18:06:39.054Z,6.29
2019-02-12T18:07:39.117Z,6.16
2019-02-12T18:08:39.009Z,6.22
2019-02-12T18:09:39.023Z,6.19
2019-02-12T18:10:38.995Z,6.21
2019-02-12T18:11:38.973Z,6.19
2019-02-12T18:12:38.968Z,6.16
2019-02-12T18:13:38.952Z,6.09
2019-02-12T18:14:39.000Z,6.13
2019-02-12T18:15:39.089Z,6.07
2019-02-12T18:16:38.942Z,6.06
2019-02-12T18:17:38.913Z,6.06
2019-02-12T18:18:38.903Z,6.09
2019-02-12T18:19:38.916Z,6.04
2019-02-12T18:20:38.877Z,5.95
2019-02-12T18:21:38.874Z,5.92
2019-02-12T18:22:38.859Z,5.95
2019-02-12T18:23:38.896Z,6.00
2019-02-12T18:24:39.047Z,5.83
2019-02-12T18:25:39.240Z,5.86
2019-02-12T18:26:38.862Z,5.92
2019-02-12T18:27:38.972Z,5.89
2019-02-12T18:28:39.006Z,5.85
2019-02-12T18:29:38.776Z,5.88
2019-02-12T18:30:39.013Z,5.86
2019-02-12T18:31:38.750Z,5.78
2019-02-12T18:32:38.792Z,5.89
2019-02-12T18:33:38.799Z,5.77
2019-02-12T18:34:38.823Z,5.83
2019-02-12T18:35:38.781Z,5.86
2019-02-12T18:36:38.710Z,5.88
2019-02-12T18:37:38.876Z,5.77
2019-02-12T18:38:38.698Z,5.83
2019-02-12T18:39:38.665Z,5.74
2019-02-12T18:40:38.873Z,5.78
2019-02-12T18:41:38.641Z,5.73
